Time;durP1;ratioP1;P1;durP2;ratioP2;P2;SDS_P1;SDS_P2;PMS_P1;PMS_P2;Temp;Humidity;BMP_temperature;BMP_pressure;BME280_temperature;BME280_humidity;BME280_pressure;Samples;Min_cycle;Max_cycle;Signal;HPM_P1;HPM_P2
2024/03/11 00:01:34;;;;;;;5.90;1.67;;;10.50;92.70;;;;;;5048911;28;20024;-52
2024/03/11 00:04:00;;;;;;;6.53;1.73;;;10.50;92.70;;;;;;5048785;28;20044;-52
2024/03/11 00:06:26;;;;;;;7.85;1.45;;;10.40;92.70;;;;;;5048269;28;20092;-52
2024/03/11 00:08:52;;;;;;;8.95;1.83;;;10.40;92.70;;;;;;5032097;28;20033;-52
2024/03/11 00:11:18;;;;;;;7.43;2.08;;;10.40;92.70;;;;;;5048307;28;20094;-52
2024/03/11 00:13:45;;;;;;;7.93;1.58;;;10.40;92.80;;;;;;5066223;28;20041;-52
2024/03/11 00:16:12;;;;;;;3.42;1.45;;;10.40;92.70;;;;;;5031942;28;20024;-52
2024/03/11 00:18:40;;;;;;;7.50;2.05;;;10.40;92.70;;;;;;5032239;28;20039;-52
2024/03/11 00:21:05;;;;;;;8.20;2.08;;;10.40;92.70;;;;;;5066351;28;20040;-52
2024/03/11 00:23:31;;;;;;;4.30;1.38;;;10.30;92.70;;;;;;5066165;28;20025;-52
2024/03/11 00:25:57;;;;;;;3.92;1.27;;;10.40;92.70;;;;;;5066054;28;20074;-52
2024/03/11 00:28:23;;;;;;;5.65;1.77;;;10.30;92.70;;;;;;5015180;28;20024;-52
2024/03/11 00:30:51;;;;;;;7.15;1.50;;;10.30;92.80;;;;;;5065966;28;20052;-52
2024/03/11 00:33:17;;;;;;;5.30;1.58;;;10.30;92.80;;;;;;5048001;28;20084;-53
2024/03/11 00:35:45;;;;;;;3.90;1.38;;;10.30;92.80;;;;;;5048080;28;20021;-52
2024/03/11 00:38:10;;;;;;;4.93;1.50;;;10.30;92.80;;;;;;5066048;28;20071;-52
2024/03/11 00:40:36;;;;;;;3.42;1.25;;;10.20;92.80;;;;;;5048242;28;20033;-53
2024/03/11 00:43:01;;;;;;;5.53;1.50;;;10.20;92.90;;;;;;5050063;28;20025;-52
2024/03/11 00:45:27;;;;;;;6.93;1.73;;;10.20;93.00;;;;;;5067476;28;20033;-52
2024/03/11 00:47:53;;;;;;;3.65;1.65;;;10.20;93.00;;;;;;5031980;28;20468;-52
2024/03/11 00:50:19;;;;;;;7.43;1.73;;;10.20;93.00;;;;;;5048191;28;20048;-52
2024/03/11 00:52:44;;;;;;;5.32;1.45;;;10.20;93.00;;;;;;5048084;28;20017;-52
2024/03/11 00:55:10;;;;;;;4.10;1.73;;;10.10;93.00;;;;;;5047887;28;20037;-52
2024/03/11 00:57:36;;;;;;;7.82;1.60;;;10.10;93.10;;;;;;5048094;28;20013;-52
2024/03/11 01:00:08;;;;;;;6.90;1.70;;;10.10;93.00;;;;;;5048182;28;20037;-52
2024/03/11 01:02:34;;;;;;;5.63;1.70;;;10.10;93.00;;;;;;5048673;28;20021;-52
2024/03/11 01:05:00;;;;;;;4.15;1.60;;;10.10;93.00;;;;;;5031556;28;20045;-52
2024/03/11 01:07:26;;;;;;;3.85;1.27;;;10.10;93.00;;;;;;5047998;28;20025;-52
2024/03/11 01:09:52;;;;;;;3.53;1.17;;;10.10;93.00;;;;;;5047773;28;20500;-52
2024/03/11 01:12:18;;;;;;;3.22;1.35;;;10.00;93.00;;;;;;5031841;28;20047;-52
2024/03/11 01:14:43;;;;;;;7.07;1.25;;;10.00;93.00;;;;;;5047826;28;20550;-52
2024/03/11 01:17:09;;;;;;;3.85;1.30;;;10.00;93.10;;;;;;5048566;28;20052;-52
2024/03/11 01:19:34;;;;;;;3.85;1.50;;;10.00;93.20;;;;;;5050087;28;20101;-52
2024/03/11 01:22:00;;;;;;;4.45;1.35;;;10.00;93.20;;;;;;5051375;28;20062;-53
2024/03/11 01:24:29;;;;;;;3.88;1.27;;;9.90;93.10;;;;;;5051231;28;20047;-52
2024/03/11 01:26:57;;;;;;;7.20;1.80;;;9.90;93.20;;;;;;5035160;28;20096;-52
2024/03/11 01:29:24;;;;;;;3.22;1.30;;;9.90;93.20;;;;;;5018639;28;20098;-52
2024/03/11 01:31:50;;;;;;;4.82;1.33;;;9.90;93.20;;;;;;5051558;28;20104;-52
2024/03/11 01:34:15;;;;;;;5.20;1.48;;;9.90;93.20;;;;;;5050891;28;20147;-52
2024/03/11 01:36:42;;;;;;;3.22;1.40;;;9.90;93.20;;;;;;5034409;28;20035;-52
2024/03/11 01:39:09;;;;;;;3.38;1.25;;;9.90;93.20;;;;;;5051195;28;20028;-52
2024/03/11 01:41:38;;;;;;;6.85;1.27;;;9.90;93.20;;;;;;5018095;28;20468;-52
2024/03/11 01:44:05;;;;;;;3.55;1.27;;;9.90;93.20;;;;;;5034462;28;20048;-52
2024/03/11 01:46:32;;;;;;;4.28;1.30;;;9.80;93.20;;;;;;5034755;28;20025;-52
2024/03/11 01:48:59;;;;;;;6.43;1.50;;;9.90;93.20;;;;;;5034145;28;20063;-52
2024/03/11 01:51:26;;;;;;;3.13;1.40;;;9.80;93.20;;;;;;5050710;28;20407;-52
2024/03/11 01:53:51;;;;;;;3.20;1.08;;;9.80;93.30;;;;;;5050575;28;20032;-53
2024/03/11 01:56:18;;;;;;;3.70;1.25;;;9.80;93.30;;;;;;5034227;28;20021;-52
2024/03/11 01:58:43;;;;;;;4.10;1.35;;;9.80;93.30;;;;;;5050796;28;20094;-52
2024/03/11 02:01:09;;;;;;;3.03;1.30;;;9.80;93.30;;;;;;5017543;28;20029;-52
2024/03/11 02:03:36;;;;;;;2.92;1.10;;;9.70;93.30;;;;;;5033892;28;20066;-52
2024/03/11 02:06:02;;;;;;;3.05;1.40;;;9.70;93.30;;;;;;5050317;28;20064;-52
2024/03/11 02:08:28;;;;;;;5.30;1.38;;;9.70;93.30;;;;;;5050361;28;20029;-52
2024/03/11 02:10:53;;;;;;;1.90;0.90;;;9.70;93.30;;;;;;5050503;28;20112;-52
2024/03/11 02:13:20;;;;;;;3.65;1.27;;;9.70;93.30;;;;;;5050187;28;20539;-52
2024/03/11 02:15:47;;;;;;;5.38;1.40;;;9.70;93.40;;;;;;5050643;28;20094;-52
2024/03/11 02:18:12;;;;;;;3.08;1.30;;;9.70;93.40;;;;;;5050494;28;20018;-52
2024/03/11 02:20:41;;;;;;;3.22;1.45;;;9.60;93.40;;;;;;5033788;28;20033;-52
2024/03/11 02:23:07;;;;;;;2.25;1.30;;;9.70;93.50;;;;;;5050828;28;20029;-52
2024/03/11 02:25:33;;;;;;;2.72;1.10;;;9.60;93.40;;;;;;5050206;28;20043;-52
2024/03/11 02:27:59;;;;;;;5.95;1.55;;;9.60;93.50;;;;;;5067970;28;20075;-52
2024/03/11 02:30:25;;;;;;;5.47;1.30;;;9.70;93.50;;;;;;5067237;28;20040;-52
2024/03/11 02:32:51;;;;;;;2.47;0.98;;;9.60;93.50;;;;;;5033700;28;20033;-52
2024/03/11 02:35:17;;;;;;;5.28;1.38;;;9.60;93.50;;;;;;5050079;28;20108;-52
2024/03/11 02:37:43;;;;;;;4.75;1.38;;;9.60;93.50;;;;;;5049923;28;20029;-52
2024/03/11 02:40:10;;;;;;;2.78;1.10;;;9.60;93.50;;;;;;5067801;28;20044;-52
2024/03/11 02:42:36;;;;;;;1.70;1.00;;;9.60;93.50;;;;;;5033454;28;20028;-52
2024/03/11 02:45:05;;;;;;;2.80;1.17;;;9.60;93.60;;;;;;5033318;28;20033;-52
2024/03/11 02:47:32;;;;;;;1.95;1.05;;;9.50;93.50;;;;;;5067712;28;20040;-52
2024/03/11 02:49:57;;;;;;;3.95;1.20;;;9.50;93.50;;;;;;5016925;28;20033;-52
2024/03/11 02:52:23;;;;;;;2.92;1.08;;;9.50;93.80;;;;;;5067522;28;20101;-52
2024/03/11 02:54:50;;;;;;;2.67;1.23;;;9.50;93.50;;;;;;5067497;28;20029;-52
2024/03/11 02:57:17;;;;;;;3.90;1.60;;;9.50;93.50;;;;;;5033247;28;20116;-52
2024/03/11 02:59:43;;;;;;;3.05;1.20;;;9.50;93.60;;;;;;5067320;28;20590;-52
2024/03/11 03:02:09;;;;;;;2.00;1.13;;;9.50;93.60;;;;;;5032858;28;20024;-52
2024/03/11 03:04:35;;;;;;;1.98;1.00;;;9.40;93.60;;;;;;5049418;28;20037;-52
2024/03/11 03:07:00;;;;;;;3.42;1.20;;;9.40;93.60;;;;;;5067269;28;20025;-52
2024/03/11 03:09:27;;;;;;;2.38;1.02;;;9.40;93.60;;;;;;5032963;28;20468;-52
2024/03/11 03:11:54;;;;;;;2.28;1.20;;;9.40;93.70;;;;;;5033163;28;20021;-52
2024/03/11 03:14:21;;;;;;;4.25;1.30;;;9.40;93.60;;;;;;5033280;28;20037;-52
2024/03/11 03:16:46;;;;;;;2.78;1.30;;;9.40;93.60;;;;;;5067177;28;20483;-52
2024/03/11 03:19:13;;;;;;;3.28;1.00;;;9.40;93.70;;;;;;5049019;28;20062;-52
2024/03/11 03:21:38;;;;;;;2.28;0.77;;;9.40;93.60;;;;;;5049339;28;20021;-53
2024/03/11 03:24:04;;;;;;;4.03;1.10;;;9.40;93.60;;;;;;5050304;28;20154;-52
2024/03/11 03:26:30;;;;;;;2.35;1.13;;;9.40;93.70;;;;;;5049157;28;20080;-52
2024/03/11 03:28:56;;;;;;;3.13;1.02;;;9.30;93.70;;;;;;5048884;28;20029;-52
2024/03/11 03:31:23;;;;;;;2.38;1.10;;;9.30;93.70;;;;;;5048963;28;20024;-52
2024/03/11 03:33:49;;;;;;;4.03;1.38;;;9.30;93.70;;;;;;5032474;28;20036;-52
2024/03/11 03:36:15;;;;;;;2.85;1.40;;;9.30;93.70;;;;;;5032248;28;20048;-52
2024/03/11 03:38:41;;;;;;;1.48;0.93;;;9.20;93.80;;;;;;5066729;28;20025;-52
2024/03/11 03:41:07;;;;;;;3.25;0.88;;;9.30;93.80;;;;;;5048521;28;20100;-52
2024/03/11 03:43:33;;;;;;;2.47;0.98;;;9.30;93.70;;;;;;5032135;28;20021;-52
2024/03/11 03:45:59;;;;;;;3.50;1.08;;;9.20;93.70;;;;;;5048967;28;20390;-52
2024/03/11 03:48:25;;;;;;;2.03;1.02;;;9.20;93.70;;;;;;5066654;28;20095;-52
2024/03/11 03:50:51;;;;;;;1.98;0.70;;;9.20;93.80;;;;;;5048775;28;20029;-52
2024/03/11 03:53:18;;;;;;;2.03;1.00;;;9.20;93.80;;;;;;5048424;28;20078;-52
2024/03/11 03:55:44;;;;;;;3.13;0.93;;;9.20;93.80;;;;;;5015900;28;20029;-52
2024/03/11 03:58:09;;;;;;;4.60;0.90;;;9.10;93.80;;;;;;5066378;28;20055;-52
2024/03/11 04:00:35;;;;;;;2.30;1.02;;;9.10;93.80;;;;;;5032032;28;20044;-52
2024/03/11 04:03:03;;;;;;;1.83;0.90;;;9.10;93.90;;;;;;5048626;28;20108;-52
2024/03/11 04:05:28;;;;;;;2.47;0.75;;;9.10;93.90;;;;;;5066478;28;20032;-52
2024/03/11 04:07:55;;;;;;;2.45;1.15;;;9.10;93.90;;;;;;5066404;28;20373;-52
2024/03/11 04:10:23;;;;;;;3.33;0.77;;;9.00;94.00;;;;;;5048411;28;20091;-52
2024/03/11 04:12:50;;;;;;;2.80;1.10;;;9.00;94.00;;;;;;5048588;28;20476;-52
2024/03/11 04:15:23;;;;;;;1.90;0.98;;;9.00;94.00;;;;;;5032093;28;20032;-52
2024/03/11 04:17:49;;;;;;;2.05;0.95;;;9.00;94.00;;;;;;5032688;28;20035;-52
2024/03/11 04:20:15;;;;;;;2.90;1.23;;;9.00;94.00;;;;;;5032006;28;20025;-52
2024/03/11 04:22:41;;;;;;;2.72;0.95;;;9.00;94.00;;;;;;5031997;28;20033;-52
2024/03/11 04:25:15;;;;;;;1.35;0.70;;;9.00;94.00;;;;;;5048376;28;20446;-52
2024/03/11 04:27:41;;;;;;;1.40;0.70;;;8.90;94.00;;;;;;5016728;28;20040;-52
2024/03/11 04:30:07;;;;;;;2.13;0.95;;;9.00;94.00;;;;;;5048257;28;20088;-52
2024/03/11 04:32:33;;;;;;;1.80;0.90;;;8.90;94.00;;;;;;5065995;28;20028;-52
2024/03/11 04:34:59;;;;;;;3.05;1.20;;;8.90;94.00;;;;;;5015280;28;20484;-52
2024/03/11 04:37:24;;;;;;;0.80;0.80;;;8.90;94.00;;;;;;5031631;28;20043;-52
2024/03/11 04:39:50;;;;;;;4.03;1.00;;;8.90;94.10;;;;;;5031880;28;20029;-52
2024/03/11 04:42:16;;;;;;;1.33;0.80;;;8.90;94.10;;;;;;5048241;28;20036;-52
2024/03/11 04:44:42;;;;;;;1.30;0.75;;;8.90;94.10;;;;;;5065989;28;20071;-52
2024/03/11 04:47:08;;;;;;;3.03;1.20;;;8.90;94.00;;;;;;5048209;28;20051;-52
2024/03/11 04:49:33;;;;;;;1.08;0.80;;;8.80;94.10;;;;;;5065933;28;20037;-52
2024/03/11 04:51:59;;;;;;;3.13;1.27;;;8.80;94.10;;;;;;5015306;28;20017;-52
2024/03/11 04:54:26;;;;;;;1.05;0.82;;;8.80;94.10;;;;;;5069191;28;20032;-52
2024/03/11 04:56:52;;;;;;;1.40;0.80;;;8.80;94.10;;;;;;5052445;28;20380;-52
2024/03/11 04:59:18;;;;;;;3.53;1.10;;;8.80;94.10;;;;;;5051920;28;20029;-52
2024/03/11 05:01:44;;;;;;;1.05;0.60;;;8.80;94.10;;;;;;5035352;28;20055;-52
2024/03/11 05:04:10;;;;;;;1.25;0.70;;;8.80;94.10;;;;;;5051532;28;20059;-52
2024/03/11 05:06:36;;;;;;;1.33;0.77;;;8.80;94.10;;;;;;5051437;28;20025;-52
2024/03/11 05:09:02;;;;;;;1.88;0.80;;;8.80;94.20;;;;;;5051493;28;20499;-52
2024/03/11 05:11:30;;;;;;;4.90;0.80;;;8.70;94.20;;;;;;5069480;28;20044;-52
2024/03/11 05:13:56;;;;;;;2.10;1.15;;;8.70;94.20;;;;;;5069479;28;20041;-52
2024/03/11 05:16:21;;;;;;;1.77;0.70;;;8.70;94.30;;;;;;5051471;28;20076;-52
2024/03/11 05:18:47;;;;;;;0.98;0.80;;;8.70;94.30;;;;;;5051486;28;20036;-52
2024/03/11 05:21:13;;;;;;;1.15;0.75;;;8.70;94.30;;;;;;5069262;28;20027;-52
2024/03/11 05:23:40;;;;;;;1.45;0.70;;;8.70;94.30;;;;;;5069165;28;20056;-52
2024/03/11 05:26:06;;;;;;;2.95;0.98;;;8.70;94.30;;;;;;5034617;28;20021;-52
2024/03/11 05:28:31;;;;;;;4.93;0.93;;;8.70;94.30;;;;;;5050986;28;20031;-52
2024/03/11 05:30:58;;;;;;;4.18;1.00;;;8.70;94.40;;;;;;5034579;28;20078;-52
2024/03/11 05:33:24;;;;;;;2.72;0.75;;;8.70;94.60;;;;;;5034478;28;20025;-52
2024/03/11 05:35:50;;;;;;;2.45;0.93;;;8.70;94.40;;;;;;5034662;28;20017;-52
2024/03/11 05:38:15;;;;;;;2.30;0.80;;;8.70;94.30;;;;;;5034607;28;20100;-52
2024/03/11 05:40:43;;;;;;;4.20;1.00;;;8.70;94.30;;;;;;5034137;28;20403;-52
2024/03/11 05:43:09;;;;;;;3.88;1.25;;;8.70;94.30;;;;;;5051133;28;20035;-52
2024/03/11 05:45:35;;;;;;;5.25;0.93;;;8.70;94.40;;;;;;5034205;28;20056;-52
2024/03/11 05:48:03;;;;;;;6.72;1.13;;;8.70;94.50;;;;;;5050705;28;20051;-52
2024/03/11 05:50:29;;;;;;;9.02;1.70;;;8.70;94.50;;;;;;5034390;28;20041;-52
2024/03/11 05:52:55;;;;;;;10.57;1.55;;;8.60;94.50;;;;;;5050859;28;20031;-52
2024/03/11 05:55:22;;;;;;;8.75;1.40;;;8.70;94.60;;;;;;5068270;28;20476;-52
2024/03/11 05:57:48;;;;;;;4.60;1.15;;;8.60;94.60;;;;;;5050365;28;20040;-52
2024/03/11 06:00:17;;;;;;;12.07;1.70;;;8.60;94.60;;;;;;5050258;28;20033;-52
2024/03/11 06:02:44;;;;;;;7.10;1.42;;;8.60;94.70;;;;;;5051155;28;20020;-53
2024/03/11 06:05:10;;;;;;;11.30;2.47;;;8.60;94.70;;;;;;5033770;28;20048;-52
2024/03/11 06:07:37;;;;;;;9.50;1.85;;;8.60;94.70;;;;;;5068250;28;20040;-52
2024/03/11 06:10:02;;;;;;;13.10;1.90;;;8.60;94.70;;;;;;5050445;28;20084;-52
2024/03/11 06:12:28;;;;;;;15.98;2.45;;;8.60;94.80;;;;;;5033888;28;20032;-52
2024/03/11 06:14:54;;;;;;;18.52;2.05;;;8.60;94.80;;;;;;5050514;28;20494;-52
2024/03/11 06:17:20;;;;;;;13.18;2.55;;;8.60;94.80;;;;;;5033804;28;20021;-52
2024/03/11 06:19:46;;;;;;;16.52;3.65;;;8.60;94.90;;;;;;5068092;28;20036;-52
2024/03/11 06:22:15;;;;;;;17.92;2.60;;;8.60;95.00;;;;;;5050097;28;20100;-52
2024/03/11 06:24:41;;;;;;;17.15;2.70;;;8.60;95.00;;;;;;5050598;28;20037;-52
2024/03/11 06:27:06;;;;;;;17.40;2.58;;;8.60;95.00;;;;;;5068098;28;20036;-52
2024/03/11 06:29:32;;;;;;;22.05;2.88;;;8.60;95.10;;;;;;5049755;28;20037;-52
2024/03/11 06:31:58;;;;;;;13.05;2.70;;;8.60;95.10;;;;;;5049975;28;20029;-52
2024/03/11 06:34:24;;;;;;;16.80;3.45;;;8.60;95.10;;;;;;5048408;28;20025;-52
2024/03/11 06:36:50;;;;;;;21.42;2.95;;;8.60;95.10;;;;;;5049279;28;20519;-52
2024/03/11 06:39:16;;;;;;;29.10;4.72;;;8.60;95.10;;;;;;5067496;28;20033;-52
2024/03/11 06:41:42;;;;;;;50.88;6.40;;;8.60;95.30;;;;;;5033184;28;20471;-52
2024/03/11 06:44:08;;;;;;;32.25;4.78;;;8.60;95.50;;;;;;5050072;28;20063;-52
2024/03/11 06:46:33;;;;;;;26.40;4.22;;;8.60;95.60;;;;;;5049920;28;20021;-52
2024/03/11 06:49:01;;;;;;;40.35;5.47;;;8.60;95.70;;;;;;5049582;28;20055;-52
2024/03/11 06:51:27;;;;;;;25.42;5.03;;;8.60;95.60;;;;;;5049375;28;20388;-52
2024/03/11 06:53:53;;;;;;;23.25;3.65;;;8.60;95.60;;;;;;5066652;28;20028;-52
2024/03/11 06:56:18;;;;;;;33.08;5.00;;;8.60;95.60;;;;;;5064280;28;20039;-52
2024/03/11 06:58:44;;;;;;;27.95;3.80;;;8.60;95.60;;;;;;5048405;28;20110;-52
2024/03/11 07:01:11;;;;;;;24.23;4.15;;;8.60;95.60;;;;;;5020093;28;20051;-52
2024/03/11 07:03:37;;;;;;;27.75;4.05;;;8.60;95.60;;;;;;5048394;28;20753;-52
2024/03/11 07:06:04;;;;;;;20.92;4.20;;;8.60;95.60;;;;;;5036405;28;21137;-52
2024/03/11 07:08:32;;;;;;;21.42;3.88;;;8.60;95.50;;;;;;5033450;28;20029;-52
2024/03/11 07:11:00;;;;;;;23.55;3.53;;;8.70;95.60;;;;;;5049694;28;20037;-52
2024/03/11 07:13:29;;;;;;;26.25;4.55;;;8.60;95.60;;;;;;5036742;28;20100;-52
2024/03/11 07:15:55;;;;;;;21.60;3.97;;;8.60;95.50;;;;;;5046568;28;20039;-52
2024/03/11 07:18:20;;;;;;;16.98;3.95;;;8.70;95.60;;;;;;5061838;28;20104;-52
2024/03/11 07:20:48;;;;;;;23.63;4.30;;;8.70;95.60;;;;;;5057138;28;20029;-52
2024/03/11 07:23:14;;;;;;;18.33;3.45;;;8.70;95.60;;;;;;5022965;28;20029;-52
2024/03/11 07:25:40;;;;;;;23.92;4.85;;;8.60;95.60;;;;;;5030173;28;20029;-52
2024/03/11 07:28:06;;;;;;;21.92;3.90;;;8.70;95.60;;;;;;5017249;28;20449;-52
2024/03/11 07:30:32;;;;;;;31.83;4.38;;;8.60;95.60;;;;;;5047775;28;20467;-52
2024/03/11 07:33:07;;;;;;;23.05;3.33;;;8.70;95.60;;;;;;5035108;28;20036;-52
2024/03/11 07:35:37;;;;;;;10.95;3.17;;;8.70;95.70;;;;;;5033276;28;20160;-53
2024/03/11 07:38:05;;;;;;;18.60;3.88;;;8.60;95.70;;;;;;5065902;28;20037;-52
2024/03/11 07:40:32;;;;;;;16.33;3.42;;;8.70;95.70;;;;;;5030653;28;20087;-52
2024/03/11 07:42:58;;;;;;;18.83;3.80;;;8.70;95.70;;;;;;5027514;28;20030;-52
2024/03/11 07:45:24;;;;;;;14.63;2.85;;;8.70;95.70;;;;;;5061112;28;20036;-52
2024/03/11 07:47:49;;;;;;;22.13;3.85;;;8.70;95.70;;;;;;5048156;28;20025;-52
2024/03/11 07:50:19;;;;;;;13.30;3.40;;;8.70;95.70;;;;;;5015425;28;20045;-52
2024/03/11 07:52:44;;;;;;;12.27;3.80;;;8.70;95.70;;;;;;5048425;28;20028;-52
2024/03/11 07:55:10;;;;;;;12.68;3.55;;;8.70;95.70;;;;;;5049028;28;20032;-52
2024/03/11 07:57:36;;;;;;;21.45;3.03;;;8.70;95.70;;;;;;5032081;28;20021;-52
2024/03/11 08:00:05;;;;;;;20.00;3.95;;;8.70;95.70;;;;;;5046971;28;20039;-52
2024/03/11 08:02:33;;;;;;;12.40;3.22;;;8.70;95.70;;;;;;5030660;28;20013;-52
2024/03/11 08:05:01;;;;;;;17.15;2.97;;;8.70;95.70;;;;;;5027341;28;20032;-52
2024/03/11 08:07:32;;;;;;;11.07;2.50;;;8.70;95.80;;;;;;5046932;28;20021;-52
2024/03/11 08:10:00;;;;;;;11.73;2.90;;;8.80;95.80;;;;;;5047045;28;20036;-52
2024/03/11 08:12:30;;;;;;;15.77;2.70;;;8.80;95.70;;;;;;5064872;28;20013;-52
2024/03/11 08:14:55;;;;;;;17.02;2.88;;;8.80;95.60;;;;;;5047836;28;20025;-52
2024/03/11 08:17:22;;;;;;;14.05;3.20;;;8.80;95.70;;;;;;5048577;28;20021;-52
2024/03/11 08:19:48;;;;;;;15.20;3.55;;;8.80;95.80;;;;;;5029522;28;20207;-52
2024/03/11 08:22:16;;;;;;;17.25;3.55;;;8.80;95.70;;;;;;5031072;28;20044;-52
2024/03/11 08:24:42;;;;;;;18.67;3.15;;;8.80;95.60;;;;;;5046171;28;20040;-52
2024/03/11 08:27:08;;;;;;;19.77;3.47;;;8.80;95.60;;;;;;5012173;28;20124;-52
2024/03/11 08:29:34;;;;;;;12.63;3.08;;;8.80;95.60;;;;;;5031995;28;20037;-52
2024/03/11 08:32:01;;;;;;;21.55;3.00;;;8.80;95.60;;;;;;5032508;28;20017;-52
2024/03/11 08:34:27;;;;;;;20.05;3.35;;;8.80;95.70;;;;;;5035164;28;20032;-52
2024/03/11 08:36:53;;;;;;;18.30;3.15;;;8.80;95.60;;;;;;5068252;28;20033;-52
2024/03/11 08:39:21;;;;;;;14.23;2.80;;;8.80;95.60;;;;;;5045337;28;20025;-52
2024/03/11 08:41:47;;;;;;;24.77;3.47;;;8.90;95.60;;;;;;5050056;28;20040;-52
2024/03/11 08:44:14;;;;;;;29.88;3.22;;;8.90;95.70;;;;;;5052117;28;20025;-52
2024/03/11 08:46:43;;;;;;;16.25;3.22;;;8.90;95.70;;;;;;5051834;28;20100;-53
2024/03/11 08:49:11;;;;;;;19.48;3.13;;;8.90;95.90;;;;;;5052091;28;20108;-52
2024/03/11 08:51:40;;;;;;;25.08;3.50;;;8.90;95.90;;;;;;5051944;28;20037;-52
2024/03/11 08:54:06;;;;;;;33.30;4.22;;;8.90;96.10;;;;;;5031845;28;20025;-52
2024/03/11 08:56:32;;;;;;;36.58;4.65;;;8.90;96.20;;;;;;5031695;28;20060;-52
2024/03/11 08:58:57;;;;;;;39.75;4.93;;;9.00;96.40;;;;;;5049514;28;20042;-52
2024/03/11 09:01:23;;;;;;;36.95;4.15;;;9.00;96.30;;;;;;5031741;28;20021;-52
2024/03/11 09:03:49;;;;;;;33.00;3.72;;;9.00;96.30;;;;;;5031695;28;20118;-52
2024/03/11 09:06:16;;;;;;;30.27;5.07;;;9.00;96.50;;;;;;5049417;28;20041;-52
2024/03/11 09:08:44;;;;;;;23.88;3.90;;;9.00;96.60;;;;;;5031667;28;20029;-52
2024/03/11 09:11:10;;;;;;;27.35;4.03;;;9.10;96.50;;;;;;5031980;28;20025;-53
2024/03/11 09:13:40;;;;;;;17.77;4.00;;;9.10;96.30;;;;;;5049196;28;20021;-52
2024/03/11 09:16:06;;;;;;;22.88;3.75;;;9.10;96.50;;;;;;5049260;28;20022;-53
2024/03/11 09:18:32;;;;;;;38.72;4.28;;;9.10;96.50;;;;;;5031409;28;20036;-52
2024/03/11 09:20:57;;;;;;;40.60;5.72;;;9.10;96.60;;;;;;5031736;28;20032;-52
2024/03/11 09:23:23;;;;;;;30.00;4.85;;;9.10;96.70;;;;;;5037747;28;20025;-52
2024/03/11 09:25:49;;;;;;;20.98;4.05;;;9.10;96.70;;;;;;5025042;28;20033;-52
2024/03/11 09:28:17;;;;;;;32.47;4.95;;;9.10;96.70;;;;;;5050511;28;20036;-52
2024/03/11 09:30:43;;;;;;;47.55;5.00;;;9.20;96.80;;;;;;5051141;28;20059;-52
2024/03/11 09:33:11;;;;;;;34.17;4.75;;;9.20;96.90;;;;;;5051070;28;20025;-53
2024/03/11 09:35:37;;;;;;;42.95;5.53;;;9.20;96.80;;;;;;5050532;28;20044;-53
2024/03/11 09:38:03;;;;;;;60.47;6.15;;;9.30;96.70;;;;;;5065838;28;20033;-52
2024/03/11 09:40:29;;;;;;;35.28;5.22;;;9.30;96.70;;;;;;5045764;28;20090;-52
2024/03/11 09:42:55;;;;;;;44.83;5.70;;;9.30;96.80;;;;;;5062501;28;20022;-52
2024/03/11 09:45:22;;;;;;;37.78;5.05;;;9.30;96.80;;;;;;5054733;28;20042;-52
2024/03/11 09:47:52;;;;;;;42.53;5.03;;;9.30;96.90;;;;;;5031257;28;20037;-52
2024/03/11 09:50:26;;;;;;;36.25;5.10;;;9.30;96.80;;;;;;5015401;28;20030;-52
2024/03/11 09:53:24;;;;;;;37.00;5.40;;;9.30;96.80;;;;;;5048999;28;20522;-52
2024/03/11 09:55:48;;;;;;;;;;;9.40;97.00;;;;;;5054959;28;20060;-52
2024/03/11 09:58:15;;;;;;;;;;;9.40;96.80;;;;;;5050774;28;19913;-52
2024/03/11 10:00:48;;;;;;;65.57;6.15;;;9.50;96.70;;;;;;5049865;28;19913;-52
2024/03/11 10:03:14;;;;;;;46.03;6.13;;;9.40;96.80;;;;;;5050727;28;20077;-52
2024/03/11 10:05:40;;;;;;;66.72;7.18;;;9.50;96.80;;;;;;5064469;28;20040;-53
2024/03/11 10:08:06;;;;;;;63.75;6.97;;;9.50;96.80;;;;;;5048519;28;20025;-52
2024/03/11 10:10:35;;;;;;;42.22;6.20;;;9.50;96.80;;;;;;5020312;28;20099;-52
2024/03/11 10:13:04;;;;;;;59.10;7.03;;;9.50;96.90;;;;;;5025800;28;20422;-52
2024/03/11 10:15:32;;;;;;;52.25;5.57;;;9.50;96.80;;;;;;5034481;28;20372;-53
2024/03/11 10:18:25;;;;;;;55.42;6.55;;;9.60;96.80;;;;;;5034076;28;20021;-52
2024/03/11 10:20:59;;;;;;;46.72;5.95;;;9.60;96.80;;;;;;5051946;28;20028;-52
2024/03/11 10:23:26;;;;;;;46.15;6.85;;;9.60;96.70;;;;;;5047324;28;20094;-52
2024/03/11 10:26:17;;;;;;;66.03;6.82;;;9.60;96.60;;;;;;5050359;28;20059;-52
2024/03/11 10:28:49;;;;;;;52.13;6.88;;;9.70;96.70;;;;;;5033645;28;20029;-52
2024/03/11 10:31:23;;;;;;;51.72;5.93;;;9.70;96.60;;;;;;5050649;28;20384;-52
2024/03/11 10:33:52;;;;;;;48.60;6.88;;;9.80;96.60;;;;;;5049733;28;20040;-52
2024/03/11 10:36:24;;;;;;;97.15;10.75;;;9.80;96.50;;;;;;5049805;28;20450;-52
2024/03/11 10:38:57;;;;;;;43.92;6.53;;;9.80;96.40;;;;;;5050034;28;20033;-52
2024/03/11 10:41:23;;;;;;;59.15;6.63;;;9.90;96.30;;;;;;5050676;28;20040;-52
2024/03/11 10:43:52;;;;;;;45.25;7.30;;;9.90;96.20;;;;;;5067073;28;20045;-52
2024/03/11 10:46:22;;;;;;;43.28;6.32;;;10.00;96.20;;;;;;5049219;28;20032;-52
2024/03/11 10:48:50;;;;;;;38.63;5.60;;;10.00;96.00;;;;;;5049486;28;20029;-52
2024/03/11 10:51:21;;;;;;;40.42;5.55;;;10.10;95.70;;;;;;5032712;28;20112;-52
2024/03/11 10:53:51;;;;;;;48.33;6.43;;;10.10;95.60;;;;;;5067035;28;20025;-52
2024/03/11 10:56:20;;;;;;;39.47;5.75;;;10.10;95.60;;;;;;5048670;28;20467;-52
2024/03/11 10:58:56;;;;;;;70.10;6.53;;;10.20;95.60;;;;;;5066714;28;20039;-52
2024/03/11 11:01:33;;;;;;;37.97;5.55;;;10.20;95.50;;;;;;5032400;28;20108;-52
2024/03/11 11:04:14;;;;;;;33.03;5.20;;;10.30;95.50;;;;;;5049112;28;20048;-52
2024/03/11 11:06:48;;;;;;;30.73;4.95;;;10.30;95.50;;;;;;5066949;28;20035;-52
2024/03/11 11:09:14;;;;;;;39.05;4.95;;;10.40;95.40;;;;;;5048773;28;20036;-53
2024/03/11 11:11:51;;;;;;;33.72;4.93;;;10.40;95.40;;;;;;5048613;28;20021;-53
2024/03/11 11:14:24;;;;;;;56.30;5.82;;;10.50;95.20;;;;;;5048070;28;20364;-53
2024/03/11 11:16:51;;;;;;;35.58;4.82;;;10.50;95.10;;;;;;5047128;28;20021;-53
2024/03/11 11:19:22;;;;;;;45.58;5.28;;;10.50;95.00;;;;;;5046820;28;20032;-53
2024/03/11 11:21:48;;;;;;;38.28;5.05;;;10.50;95.10;;;;;;5047229;28;20092;-53
2024/03/11 11:24:30;;;;;;;51.65;5.00;;;10.60;95.30;;;;;;5046816;28;20463;-53
2024/03/11 11:27:01;;;;;;;48.95;5.88;;;10.60;95.30;;;;;;5064739;28;20029;-53
2024/03/11 11:29:29;;;;;;;56.00;5.85;;;10.60;95.30;;;;;;5047943;28;20098;-53
2024/03/11 11:32:06;;;;;;;33.28;4.65;;;10.70;95.20;;;;;;5048731;28;20033;-53
2024/03/11 11:34:48;;;;;;;30.55;4.05;;;10.70;95.00;;;;;;5066381;28;20100;-53
2024/03/11 11:37:23;;;;;;;37.65;5.25;;;10.80;94.60;;;;;;5031837;28;20102;-53
2024/03/11 11:39:54;;;;;;;68.57;6.90;;;10.80;94.60;;;;;;5066236;28;20049;-53
2024/03/11 11:42:34;;;;;;;55.70;6.10;;;10.90;94.60;;;;;;5066298;28;20048;-53
2024/03/11 11:45:00;;;;;;;45.45;5.30;;;11.00;94.60;;;;;;5066223;28;20029;-53
2024/03/11 11:47:27;;;;;;;53.80;6.28;;;11.00;94.30;;;;;;5048453;28;20105;-59
2024/03/11 11:49:54;;;;;;;36.95;5.50;;;11.10;94.30;;;;;;5066330;28;20064;-59
2024/03/11 11:52:20;;;;;;;42.17;5.70;;;11.10;94.20;;;;;;5031766;28;20021;-59
2024/03/11 11:54:46;;;;;;;53.53;6.10;;;11.10;94.20;;;;;;5048106;28;20029;-59
2024/03/11 11:57:15;;;;;;;61.10;6.70;;;11.20;94.30;;;;;;5048139;28;20047;-59
2024/03/11 11:59:43;;;;;;;52.72;5.60;;;11.20;94.30;;;;;;5031596;28;20082;-59
2024/03/11 12:02:22;;;;;;;65.68;7.30;;;11.20;94.30;;;;;;5047369;28;20056;-59
2024/03/11 12:05:00;;;;;;;51.10;5.15;;;11.30;94.40;;;;;;5065933;28;20096;-59
2024/03/11 12:07:28;;;;;;;35.10;3.97;;;11.30;94.60;;;;;;5048244;28;20097;-58
2024/03/11 12:09:58;;;;;;;30.73;4.38;;;11.30;94.40;;;;;;5065763;28;20040;-59
2024/03/11 12:12:34;;;;;;;28.15;3.47;;;11.30;93.90;;;;;;5048470;28;20468;-60
2024/03/11 12:15:01;;;;;;;44.80;4.63;;;11.40;93.80;;;;;;5048260;28;20051;-58
2024/03/11 12:17:30;;;;;;;32.40;3.67;;;11.40;93.70;;;;;;5048349;28;20467;-58
2024/03/11 12:20:25;;;;;;;39.63;4.28;;;11.40;93.80;;;;;;5048416;28;20037;-58
2024/03/11 12:22:52;;;;;;;42.50;6.07;;;11.50;93.80;;;;;;5048024;28;20025;-58
2024/03/11 12:25:18;;;;;;;16.05;2.85;;;11.50;93.90;;;;;;5065795;28;20185;-58
2024/03/11 12:27:44;;;;;;;41.85;4.55;;;11.50;93.90;;;;;;5047446;28;20068;-58
2024/03/11 12:30:18;;;;;;;14.88;2.47;;;11.50;93.80;;;;;;5047996;28;20044;-58
2024/03/11 12:32:55;;;;;;;24.63;3.80;;;11.60;93.70;;;;;;5048632;28;20021;-58
2024/03/11 12:35:21;;;;;;;39.80;4.47;;;11.60;93.70;;;;;;5047828;28;20035;-58
2024/03/11 12:37:48;;;;;;;46.50;6.78;;;11.70;93.50;;;;;;5047646;28;20053;-58
2024/03/11 12:40:20;;;;;;;53.65;6.47;;;11.70;93.40;;;;;;5047989;28;20040;-58
2024/03/11 12:42:54;;;;;;;71.25;7.00;;;11.80;93.40;;;;;;5048465;28;20036;-58
2024/03/11 12:45:42;;;;;;;44.70;6.70;;;11.80;93.30;;;;;;5048811;28;20029;-58
2024/03/11 12:48:12;;;;;;;50.63;5.07;;;11.90;93.20;;;;;;5045124;28;20040;-58
2024/03/11 12:50:45;;;;;;;70.88;8.48;;;11.90;93.10;;;;;;5046081;28;20431;-58
2024/03/11 12:53:18;;;;;;;51.63;6.45;;;11.90;93.00;;;;;;5029364;28;20017;-58